createdAt,value
2022-11-30T00:00:49.844Z,102602.09
2022-11-30T00:03:37.609Z,102597.91
2022-11-30T00:06:25.486Z,102608.78
2022-11-30T00:09:13.467Z,102603.69
2022-11-30T00:12:01.062Z,102601.16
2022-11-30T00:14:48.887Z,102605.31
2022-11-30T00:17:36.602Z,102597.69
2022-11-30T00:20:25.218Z,102601.81
2022-11-30T00:23:12.776Z,102603.47
2022-11-30T00:26:06.091Z,102598.44
2022-11-30T00:28:53.779Z,102606.81
2022-11-30T00:31:41.407Z,102600.06
2022-11-30T00:34:28.963Z,102597.53
2022-11-30T00:37:16.692Z,102586.56
2022-11-30T00:40:06.173Z,102591.59
2022-11-30T00:42:55.163Z,102584.91
2022-11-30T00:45:43.037Z,102589.97
2022-11-30T00:48:30.973Z,102578.25
2022-11-30T00:51:19.390Z,102581.59
2022-11-30T00:54:06.953Z,102574.13
2022-11-30T00:56:54.562Z,102576.63
2022-11-30T00:59:42.119Z,102574.91
2022-11-30T01:02:29.798Z,102574.91
2022-11-30T01:05:17.376Z,102579.94
2022-11-30T01:08:08.347Z,102579.09
2022-11-30T01:10:57.826Z,102576.53
2022-11-30T01:13:45.455Z,102579.03
2022-11-30T01:16:34.106Z,102577.31
2022-11-30T01:19:21.707Z,102575.63
2022-11-30T01:22:09.283Z,102573.91
2022-11-30T01:24:56.905Z,102573.91
2022-11-30T01:27:48.073Z,102582.28
2022-11-30T01:30:35.726Z,102578.91
2022-11-30T01:33:23.442Z,102578.81
2022-11-30T01:36:14.270Z,102573.72
2022-11-30T01:39:01.915Z,102582.91
2022-11-30T01:41:49.606Z,102575.34
2022-11-30T01:44:55.560Z,102580.44
2022-11-30T01:47:49.164Z,102578.78
2022-11-30T01:50:37.193Z,102575.38
2022-11-30T01:53:24.942Z,102571.13
2022-11-30T01:56:12.618Z,102577.06
2022-11-30T01:59:00.638Z,102570.34
2022-11-30T02:01:48.462Z,102579.56
2022-11-30T02:04:37.978Z,102566.94
2022-11-30T02:07:26.185Z,102563.59
2022-11-30T02:10:17.160Z,102562.78
2022-11-30T02:13:27.485Z,102567.81
2022-11-30T02:16:41.524Z,102556.88
2022-11-30T02:19:56.097Z,102567.72
2022-11-30T02:23:19.190Z,102565.16
2022-11-30T02:26:22.817Z,102560.91
2022-11-30T02:29:13.488Z,102557.56
2022-11-30T02:32:13.904Z,102562.56
2022-11-30T02:35:04.195Z,102560.84
2022-11-30T02:37:54.759Z,102555.00
2022-11-30T02:40:42.856Z,102562.56
2022-11-30T02:43:32.125Z,102552.53
2022-11-30T02:46:29.890Z,102550.84
2022-11-30T02:49:31.083Z,102552.50
2022-11-30T02:52:22.584Z,102548.31
2022-11-30T02:55:15.166Z,102542.44
2022-11-30T02:58:02.928Z,102542.44
2022-11-30T03:00:50.722Z,102543.34
2022-11-30T03:03:38.241Z,102543.34
2022-11-30T03:06:25.865Z,102542.44
2022-11-30T03:09:14.337Z,102545.81
2022-11-30T03:12:01.994Z,102555.00
2022-11-30T03:14:49.839Z,102552.50
2022-11-30T03:17:37.662Z,102552.53
2022-11-30T03:20:25.652Z,102558.47
2022-11-30T03:23:13.288Z,102550.06
2022-11-30T03:26:01.191Z,102550.84
2022-11-30T03:28:48.839Z,102550.06
2022-11-30T03:31:36.442Z,102543.28
2022-11-30T03:34:26.562Z,102541.56
2022-11-30T03:37:14.225Z,102544.06
2022-11-30T03:40:01.960Z,102555.88
2022-11-30T03:42:51.298Z,102557.59
2022-11-30T03:45:38.980Z,102555.88
2022-11-30T03:48:26.734Z,102553.41
2022-11-30T03:51:14.827Z,102553.34
2022-11-30T03:54:02.426Z,102549.09
2022-11-30T03:56:50.052Z,102548.28
2022-11-30T03:59:37.719Z,102553.31
2022-11-30T04:02:25.461Z,102547.44
2022-11-30T04:05:13.585Z,102550.75
2022-11-30T04:08:01.270Z,102545.72
2022-11-30T04:10:53.745Z,102552.47
2022-11-30T04:13:41.941Z,102561.63
2022-11-30T04:16:29.660Z,102559.13
2022-11-30T04:19:17.387Z,102563.41
2022-11-30T04:22:05.050Z,102554.22
2022-11-30T04:24:52.684Z,102552.50
2022-11-30T04:27:40.389Z,102548.31
2022-11-30T04:30:28.210Z,102545.03
2022-11-30T04:33:17.062Z,102547.56
2022-11-30T04:36:06.300Z,102543.34
2022-11-30T04:38:53.999Z,102542.50
2022-11-30T04:41:41.661Z,102560.06
2022-11-30T04:44:29.432Z,102558.38
2022-11-30T04:47:25.252Z,102557.53
2022-11-30T05:21:45.417Z,102565.28
2022-11-30T05:24:58.289Z,102552.63
2022-11-30T05:28:16.121Z,102555.28
2022-11-30T05:31:57.942Z,102562.91
2022-11-30T05:35:40.745Z,102562.03
2022-11-30T05:38:48.645Z,102575.53
2022-11-30T05:41:57.664Z,102566.22
2022-11-30T06:38:48.919Z,102598.75
2022-11-30T06:42:43.940Z,102602.25
2022-11-30T11:46:37.418Z,102561.44
2022-11-30T11:50:01.218Z,102564.84
2022-11-30T11:53:50.048Z,102572.44
2022-11-30T11:56:54.132Z,102552.16
2022-11-30T12:00:42.318Z,102567.34
2022-11-30T12:08:48.698Z,102568.19
2022-11-30T12:13:15.719Z,102563.13
2022-11-30T12:16:29.545Z,102571.50
2022-11-30T12:20:14.256Z,102578.25
2022-11-30T12:23:31.796Z,102573.16
2022-11-30T12:27:09.469Z,102576.50
2022-11-30T12:30:30.591Z,102579.00
2022-11-30T12:33:58.868Z,102572.19
2022-11-30T12:37:08.430Z,102578.91
2022-11-30T12:40:29.480Z,102584.75
2022-11-30T12:44:08.023Z,102573.72
2022-11-30T12:51:29.764Z,102582.84
2022-11-30T12:54:46.644Z,102582.78
2022-11-30T12:58:40.702Z,102588.69
2022-11-30T13:02:22.599Z,102591.97
2022-11-30T13:06:04.842Z,102598.69
2022-11-30T13:13:11.942Z,102588.41
2022-11-30T13:16:28.291Z,102584.13
2022-11-30T13:20:17.430Z,102590.84
2022-11-30T13:23:58.679Z,102594.97
2022-11-30T13:27:02.326Z,102599.13
2022-11-30T13:30:15.631Z,102588.97
2022-11-30T13:41:20.026Z,102587.97
2022-11-30T13:44:22.426Z,102593.00
2022-11-30T13:47:34.681Z,102583.63
2022-11-30T13:50:41.165Z,102583.63
2022-11-30T13:53:34.513Z,102581.78
2022-11-30T13:56:22.851Z,102587.69
2022-11-30T13:59:23.455Z,102586.88
2022-11-30T14:02:43.121Z,102580.13
2022-11-30T14:05:39.639Z,102572.50
2022-11-30T14:08:38.529Z,102572.50
2022-11-30T14:11:41.894Z,102580.06
2022-11-30T14:14:45.661Z,102576.66
2022-11-30T14:17:35.673Z,102564.75
2022-11-30T14:20:27.178Z,102561.41
2022-11-30T14:23:19.742Z,102569.00
2022-11-30T14:26:23.532Z,102574.03
2022-11-30T14:29:28.139Z,102570.69
2022-11-30T14:32:18.804Z,102569.03
2022-11-30T14:35:17.406Z,102567.41
2022-11-30T14:38:16.100Z,102564.91
2022-11-30T14:41:03.973Z,102565.78
2022-11-30T14:44:03.995Z,102560.75
2022-11-30T14:46:52.036Z,102559.88
2022-11-30T14:49:47.361Z,102559.88
2022-11-30T14:53:09.055Z,102566.63
2022-11-30T14:56:19.731Z,102571.69
2022-11-30T14:59:39.404Z,102571.78
2022-11-30T15:02:37.902Z,102570.91
2022-11-30T15:05:28.858Z,102565.00
2022-11-30T15:08:17.323Z,102565.00
2022-11-30T15:11:13.377Z,102569.25
2022-11-30T15:14:09.445Z,102572.69
2022-11-30T15:16:58.089Z,102571.00
2022-11-30T15:19:48.910Z,102574.38
2022-11-30T15:22:36.859Z,102580.28
2022-11-30T15:25:30.826Z,102576.13
2022-11-30T15:28:27.757Z,102579.50
2022-11-30T15:31:16.706Z,102568.56
2022-11-30T15:34:07.261Z,102577.00
2022-11-30T15:36:56.823Z,102575.28
2022-11-30T15:39:55.346Z,102581.16
2022-11-30T15:42:44.247Z,102575.25
2022-11-30T15:45:38.625Z,102572.66
2022-11-30T15:48:31.554Z,102574.31
2022-11-30T15:51:23.952Z,102576.84
2022-11-30T15:54:12.273Z,102575.97
2022-11-30T15:57:02.440Z,102571.72
2022-11-30T16:00:26.332Z,102573.47
2022-11-30T16:03:13.932Z,102575.13
2022-11-30T16:06:05.114Z,102567.53
2022-11-30T16:08:53.700Z,102572.56
2022-11-30T16:11:41.381Z,102574.31
2022-11-30T16:14:29.039Z,102571.72
2022-11-30T16:17:16.699Z,102583.53
2022-11-30T16:20:04.926Z,102578.50
2022-11-30T16:22:52.636Z,102569.25
2022-11-30T16:25:41.454Z,102575.16
2022-11-30T16:28:34.501Z,102575.16
2022-11-30T16:31:25.785Z,102565.91
2022-11-30T16:34:13.453Z,102563.41
2022-11-30T16:37:01.069Z,102570.13
2022-11-30T16:39:48.887Z,102564.22
2022-11-30T16:42:36.732Z,102568.41
2022-11-30T16:45:26.176Z,102575.09
2022-11-30T16:48:16.987Z,102572.56
2022-11-30T16:51:05.016Z,102569.09
2022-11-30T16:53:52.777Z,102562.28
2022-11-30T16:56:44.161Z,102563.88
2022-11-30T16:59:31.758Z,102573.09
2022-11-30T17:02:22.379Z,102556.28
2022-11-30T17:05:13.136Z,102560.47
2022-11-30T17:08:00.735Z,102563.84
2022-11-30T17:10:51.928Z,102568.06
2022-11-30T17:13:39.518Z,102571.38
2022-11-30T17:16:27.743Z,102564.56
2022-11-30T17:19:15.430Z,102563.72
2022-11-30T17:22:03.294Z,102573.75
2022-11-30T17:24:50.909Z,102571.97
2022-11-30T17:27:38.621Z,102573.59
2022-11-30T17:30:26.664Z,102579.50
2022-11-30T17:33:14.411Z,102570.25
2022-11-30T17:36:05.457Z,102574.44
2022-11-30T17:38:53.119Z,102576.06
2022-11-30T17:41:40.709Z,102573.50
2022-11-30T17:44:28.383Z,102579.47
2022-11-30T17:47:16.039Z,102565.94
2022-11-30T17:50:04.159Z,102568.47
2022-11-30T17:52:51.859Z,102575.22
2022-11-30T17:55:40.036Z,102569.31
2022-11-30T17:58:32.568Z,102569.25
2022-11-30T18:01:24.277Z,102575.03
2022-11-30T18:04:12.417Z,102570.75
2022-11-30T18:07:00.086Z,102573.31
2022-11-30T18:09:47.695Z,102578.34
2022-11-30T18:12:35.351Z,102574.97
2022-11-30T18:15:23.037Z,102578.28
2022-11-30T18:18:10.629Z,102579.88
2022-11-30T18:21:06.751Z,102586.56
2022-11-30T18:23:54.435Z,102581.44
2022-11-30T18:26:42.076Z,102584.84
2022-11-30T18:29:29.771Z,102583.22
2022-11-30T18:32:17.361Z,102587.41
2022-11-30T18:35:05.444Z,102588.28
2022-11-30T18:37:53.098Z,102578.97
2022-11-30T18:40:40.734Z,102579.78
2022-11-30T18:43:30.674Z,102587.28
2022-11-30T18:46:19.813Z,102592.28
2022-11-30T18:49:07.453Z,102592.28
2022-11-30T18:51:55.118Z,102591.47
2022-11-30T18:54:42.818Z,102603.09
2022-11-30T18:57:30.600Z,102595.53
2022-11-30T19:00:19.003Z,102591.34
2022-11-30T19:03:07.073Z,102592.09
2022-11-30T19:05:54.996Z,102592.03
2022-11-30T19:08:42.677Z,102593.69
2022-11-30T19:11:32.445Z,102592.00
2022-11-30T19:14:20.180Z,102601.25
2022-11-30T19:17:07.867Z,102603.75
2022-11-30T19:19:55.568Z,102605.44
2022-11-30T19:22:43.245Z,102607.94
2022-11-30T19:25:30.896Z,102609.63
2022-11-30T19:28:19.100Z,102603.63
2022-11-30T19:31:17.238Z,102613.78
2022-11-30T19:34:11.999Z,102613.78
2022-11-30T19:37:00.480Z,102613.75
2022-11-30T19:39:48.066Z,102612.88
2022-11-30T19:42:35.714Z,102615.41
2022-11-30T19:45:25.349Z,102617.84
2022-11-30T19:48:13.013Z,102625.34
2022-11-30T19:51:05.307Z,102629.63
2022-11-30T19:53:57.672Z,102632.91
2022-11-30T19:56:45.480Z,102628.75
2022-11-30T19:59:33.078Z,102628.78
2022-11-30T20:02:20.873Z,102640.47
2022-11-30T20:05:09.113Z,102634.56
2022-11-30T20:07:56.743Z,102636.19
2022-11-30T20:10:44.992Z,102638.66
2022-11-30T20:13:32.720Z,102640.25
2022-11-30T20:16:22.757Z,102638.44
2022-11-30T20:19:10.973Z,102647.63
2022-11-30T20:21:59.334Z,102648.38
2022-11-30T20:24:47.313Z,102645.72
2022-11-30T20:27:35.520Z,102648.28
2022-11-30T20:30:23.397Z,102638.16
2022-11-30T20:33:11.039Z,102644.06
2022-11-30T20:36:05.164Z,102639.81
2022-11-30T20:38:52.929Z,102643.16
2022-11-30T20:41:40.705Z,102646.47
2022-11-30T20:44:28.305Z,102643.97
2022-11-30T20:47:15.964Z,102644.84
2022-11-30T20:50:04.921Z,102651.50
2022-11-30T20:52:52.617Z,102646.44
2022-11-30T20:55:40.270Z,102645.53
2022-11-30T20:58:27.931Z,102648.94
2022-11-30T21:01:21.113Z,102640.50
2022-11-30T21:04:08.776Z,102652.97
2022-11-30T21:06:56.446Z,102639.50
2022-11-30T21:09:44.201Z,102645.41
2022-11-30T21:12:32.103Z,102646.94
2022-11-30T21:15:19.677Z,102640.22
2022-11-30T21:18:07.304Z,102653.56
2022-11-30T21:21:04.709Z,102650.94
2022-11-30T21:23:52.714Z,102663.69
2022-11-30T21:26:42.795Z,102659.59
